Time;durP1;ratioP1;P1;durP2;ratioP2;P2;SDS_P1;SDS_P2;PMS_P1;PMS_P2;Temp;Humidity;BMP_temperature;BMP_pressure;BME280_temperature;BME280_humidity;BME280_pressure;Samples;Min_cycle;Max_cycle;Signal;HPM_P1;HPM_P2
2023/07/03 00:01:52;;;;;;;7.88;2.30;;;16.30;99.90;;;;;;5004923;28;20052;-71
2023/07/03 00:04:18;;;;;;;7.80;2.70;;;16.30;99.90;;;;;;5022188;28;20490;-71
2023/07/03 00:06:45;;;;;;;9.40;2.00;;;16.30;99.90;;;;;;5025237;28;20072;-70
2023/07/03 00:09:11;;;;;;;8.57;2.45;;;16.20;99.90;;;;;;5039201;28;20226;-70
2023/07/03 00:11:37;;;;;;;11.15;2.47;;;16.20;99.90;;;;;;5005910;28;20056;-71
2023/07/03 00:14:02;;;;;;;10.15;2.60;;;16.30;99.90;;;;;;5024716;28;20457;-71
2023/07/03 00:16:28;;;;;;;10.40;2.35;;;16.30;99.90;;;;;;5024983;28;20741;-70
2023/07/03 00:18:54;;;;;;;9.85;2.60;;;16.30;99.90;;;;;;5021252;28;20508;-71
2023/07/03 00:21:19;;;;;;;7.38;2.30;;;16.20;99.90;;;;;;5023161;28;20091;-71
2023/07/03 00:23:45;;;;;;;11.75;2.92;;;16.20;99.90;;;;;;5025379;28;20053;-71
2023/07/03 00:26:11;;;;;;;8.18;2.55;;;16.20;99.90;;;;;;5022988;28;20047;-71
2023/07/03 00:28:37;;;;;;;10.30;2.30;;;16.20;99.90;;;;;;5022826;28;20451;-70
2023/07/03 00:31:03;;;;;;;12.02;2.90;;;16.20;99.90;;;;;;5024530;28;20716;-71
2023/07/03 00:33:28;;;;;;;7.30;2.20;;;16.30;99.90;;;;;;5034480;28;20111;-71
2023/07/03 00:35:54;;;;;;;6.45;2.67;;;16.20;99.90;;;;;;5025983;28;20064;-72
2023/07/03 00:38:19;;;;;;;10.43;2.53;;;16.20;99.90;;;;;;5023878;28;20041;-70
2023/07/03 00:40:45;;;;;;;13.57;3.05;;;16.30;99.90;;;;;;5023349;28;20052;-72
2023/07/03 00:43:11;;;;;;;5.60;2.30;;;16.30;99.90;;;;;;5023812;28;20430;-71
2023/07/03 00:45:37;;;;;;;12.85;2.28;;;16.30;99.90;;;;;;5023130;28;20170;-71
2023/07/03 00:48:03;;;;;;;8.48;2.00;;;16.30;99.90;;;;;;5024254;28;20037;-72
2023/07/03 00:50:29;;;;;;;7.22;1.95;;;16.30;99.90;;;;;;5023647;28;20052;-71
2023/07/03 00:53:01;;;;;;;8.70;2.33;;;16.30;99.90;;;;;;5024273;28;20140;-71
2023/07/03 00:55:27;;;;;;;8.88;2.15;;;16.30;99.90;;;;;;5025089;28;20056;-71
2023/07/03 00:57:52;;;;;;;10.60;2.15;;;16.30;99.90;;;;;;5022480;28;20060;-71
2023/07/03 01:00:21;;;;;;;10.93;2.10;;;16.30;99.90;;;;;;5022492;28;20119;-71
2023/07/03 01:02:58;;;;;;;7.13;2.15;;;16.30;99.90;;;;;;5020616;28;20103;-72
2023/07/03 01:05:35;;;;;;;;;;;16.30;99.90;;;;;;5022353;28;20048;-72
2023/07/03 01:08:01;;;;;;;;;;;16.30;99.90;;;;;;5013402;28;19944;-71
2023/07/03 01:10:30;;;;;;;5.32;2.20;;;16.30;99.90;;;;;;5022084;28;20378;-72
2023/07/03 01:13:09;;;;;;;8.20;2.83;;;16.30;99.90;;;;;;5022132;28;20073;-71
2023/07/03 01:15:38;;;;;;;11.65;2.30;;;16.30;99.90;;;;;;5025133;28;20141;-71
2023/07/03 01:18:06;;;;;;;7.47;2.10;;;16.30;99.90;;;;;;5025888;28;20045;-71
2023/07/03 01:20:43;;;;;;;9.38;2.30;;;16.30;99.90;;;;;;5025711;28;20525;-72
2023/07/03 01:23:18;;;;;;;7.13;2.30;;;16.30;99.90;;;;;;5028652;28;20048;-72
2023/07/03 01:25:46;;;;;;;7.35;2.13;;;16.30;99.90;;;;;;5026517;28;20125;-71
2023/07/03 01:28:14;;;;;;;8.77;1.60;;;16.20;99.90;;;;;;5025336;28;20044;-75
2023/07/03 01:30:42;;;;;;;4.18;1.70;;;16.20;99.90;;;;;;5024112;28;20110;-71
2023/07/03 01:33:14;;;;;;;5.30;1.35;;;16.20;99.90;;;;;;5024985;28;20482;-72
2023/07/03 01:35:40;;;;;;;5.53;1.52;;;16.20;99.90;;;;;;5028741;28;20048;-72
2023/07/03 01:38:07;;;;;;;5.50;1.75;;;16.20;99.90;;;;;;5028868;28;20415;-71
2023/07/03 01:40:34;;;;;;;9.32;1.67;;;16.20;99.90;;;;;;5026958;28;21523;-71
2023/07/03 01:43:01;;;;;;;6.80;1.60;;;16.10;99.90;;;;;;5028574;28;20073;-71
2023/07/03 01:45:27;;;;;;;8.43;1.83;;;16.10;99.90;;;;;;5030045;28;20059;-71
2023/07/03 01:47:52;;;;;;;8.77;1.38;;;16.10;99.90;;;;;;5027557;28;20040;-71
2023/07/03 01:50:23;;;;;;;8.43;1.92;;;16.10;99.90;;;;;;5026069;28;20099;-71
2023/07/03 01:53:01;;;;;;;9.98;1.60;;;16.10;99.90;;;;;;5028220;28;20454;-72
2023/07/03 01:55:42;;;;;;;7.43;1.52;;;16.10;99.90;;;;;;5028649;28;20155;-71
2023/07/03 01:58:29;;;;;;;7.07;1.40;;;16.10;99.90;;;;;;5036740;28;20083;-71
2023/07/03 02:01:01;;;;;;;6.45;1.05;;;16.10;99.90;;;;;;5043499;28;20322;-71
2023/07/03 02:03:51;;;;;;;3.50;1.27;;;16.00;99.90;;;;;;5046288;28;20045;-71
2023/07/03 02:06:24;;;;;;;5.00;1.30;;;16.00;99.90;;;;;;5046947;28;20040;-71
2023/07/03 02:08:52;;;;;;;8.15;1.50;;;16.00;99.90;;;;;;5047381;28;20044;-71
2023/07/03 02:11:20;;;;;;;6.90;1.50;;;16.00;99.90;;;;;;5046193;28;20052;-71
2023/07/03 02:13:46;;;;;;;10.85;2.42;;;16.00;99.90;;;;;;5061210;28;20124;-71
2023/07/03 02:16:15;;;;;;;5.25;1.20;;;16.00;99.90;;;;;;5048080;28;20128;-71
2023/07/03 02:18:42;;;;;;;4.15;0.80;;;15.90;99.90;;;;;;5045207;28;20095;-71
2023/07/03 02:21:08;;;;;;;7.32;1.27;;;15.90;99.90;;;;;;5042561;28;20053;-71
2023/07/03 02:23:34;;;;;;;3.83;1.15;;;15.90;99.90;;;;;;5042686;28;20099;-71
2023/07/03 02:26:00;;;;;;;3.45;1.08;;;15.90;99.90;;;;;;5048834;28;20520;-71
2023/07/03 02:28:25;;;;;;;4.60;1.10;;;15.90;99.90;;;;;;5042829;28;20040;-70
2023/07/03 02:30:51;;;;;;;9.52;2.53;;;15.80;99.90;;;;;;5047066;28;20124;-71
2023/07/03 02:33:17;;;;;;;8.85;1.17;;;15.80;99.90;;;;;;5041254;28;20033;-71
2023/07/03 02:35:43;;;;;;;6.15;1.30;;;15.70;99.90;;;;;;5042722;28;20672;-69
2023/07/03 02:38:09;;;;;;;7.35;1.23;;;15.70;99.90;;;;;;5040645;28;20041;-70
2023/07/03 02:40:36;;;;;;;;;;;15.70;99.90;;;;;;5040953;28;20656;-71
2023/07/03 02:43:02;;;;;;;11.23;2.30;;;15.60;99.90;;;;;;5043921;28;20370;-71
2023/07/03 02:45:32;;;;;;;4.18;1.05;;;15.60;99.90;;;;;;5045230;28;20055;-70
2023/07/03 02:47:58;;;;;;;4.47;1.05;;;15.60;99.90;;;;;;5041843;28;20057;-71
2023/07/03 02:50:24;;;;;;;4.63;1.35;;;15.50;99.90;;;;;;5041859;28;20040;-71
2023/07/03 02:52:49;;;;;;;7.03;1.25;;;15.50;99.90;;;;;;5036565;28;20076;-71
2023/07/03 02:55:15;;;;;;;4.60;1.10;;;15.50;99.90;;;;;;5034006;28;20083;-71
2023/07/03 02:57:41;;;;;;;5.43;1.13;;;15.40;99.90;;;;;;5027333;28;20655;-71
2023/07/03 03:00:07;;;;;;;5.18;1.23;;;15.40;99.90;;;;;;5029938;28;20273;-70
2023/07/03 03:02:33;;;;;;;10.52;2.25;;;15.40;99.90;;;;;;5033557;28;20060;-71
2023/07/03 03:04:59;;;;;;;10.27;1.35;;;15.30;99.90;;;;;;5031519;28;20468;-71
2023/07/03 03:07:24;;;;;;;12.70;1.67;;;15.40;99.90;;;;;;5027026;28;20052;-71
2023/07/03 03:09:50;;;;;;;9.73;1.63;;;15.30;99.90;;;;;;5033577;28;20124;-70
2023/07/03 03:12:15;;;;;;;6.78;1.50;;;15.20;99.90;;;;;;5030393;28;20450;-71
2023/07/03 03:14:41;;;;;;;7.25;1.52;;;15.20;99.90;;;;;;5028461;28;20040;-71
2023/07/03 03:17:07;;;;;;;7.88;1.50;;;15.20;99.90;;;;;;5029227;28;20049;-71
2023/07/03 03:19:33;;;;;;;5.40;1.40;;;15.20;99.90;;;;;;5028555;28;20446;-70
2023/07/03 03:21:58;;;;;;;11.63;1.98;;;15.10;99.90;;;;;;5029342;28;20185;-71
2023/07/03 03:24:25;;;;;;;13.60;1.27;;;15.10;99.90;;;;;;5027993;28;20040;-71
2023/07/03 03:26:51;;;;;;;8.20;1.70;;;15.10;99.90;;;;;;5030848;28;20038;-70
2023/07/03 03:29:17;;;;;;;9.45;1.52;;;15.00;99.90;;;;;;5028005;28;20131;-70
2023/07/03 03:31:42;;;;;;;4.28;1.17;;;15.00;99.90;;;;;;5032160;28;20399;-70
2023/07/03 03:34:08;;;;;;;6.05;1.30;;;15.00;99.90;;;;;;5030324;28;20506;-70
2023/07/03 03:36:37;;;;;;;8.18;1.42;;;15.00;99.90;;;;;;5028148;28;20552;-69
2023/07/03 03:39:03;;;;;;;7.40;1.20;;;14.90;99.90;;;;;;5017003;28;20037;-71
2023/07/03 03:41:28;;;;;;;6.28;1.40;;;14.90;99.90;;;;;;5037377;28;20045;-69
2023/07/03 03:43:54;;;;;;;6.38;1.75;;;14.90;99.90;;;;;;5032801;28;20103;-71
2023/07/03 03:46:20;;;;;;;6.45;1.33;;;14.90;99.90;;;;;;5028299;28;20497;-73
2023/07/03 03:48:45;;;;;;;6.63;1.35;;;14.90;99.90;;;;;;5026849;28;20553;-73
2023/07/03 03:51:11;;;;;;;3.60;1.02;;;14.90;99.90;;;;;;5026806;28;20131;-75
2023/07/03 03:53:37;;;;;;;5.85;1.25;;;14.90;99.90;;;;;;5037524;28;20056;-69
2023/07/03 03:56:03;;;;;;;10.93;2.45;;;14.90;99.90;;;;;;5038056;28;20037;-72
2023/07/03 03:58:28;;;;;;;10.35;1.88;;;14.80;99.90;;;;;;5030288;28;20073;-73
2023/07/03 04:00:54;;;;;;;5.10;1.05;;;14.80;99.90;;;;;;5030991;28;20080;-70
2023/07/03 04:03:20;;;;;;;5.32;1.65;;;14.80;99.90;;;;;;5035913;28;20045;-71
2023/07/03 04:05:46;;;;;;;7.70;1.50;;;14.90;99.90;;;;;;5029107;28;20450;-73
2023/07/03 04:08:11;;;;;;;;;;;14.90;99.90;;;;;;5028713;28;20072;-73
2023/07/03 04:10:38;;;;;;;9.98;1.40;;;14.80;99.90;;;;;;5027336;28;19950;-73
2023/07/03 04:13:04;;;;;;;4.78;1.30;;;14.80;99.90;;;;;;5031581;28;20056;-73
2023/07/03 04:15:33;;;;;;;9.05;1.27;;;14.90;99.90;;;;;;5028511;28;20727;-73
2023/07/03 04:17:59;;;;;;;7.78;1.17;;;14.80;99.90;;;;;;5045690;28;20037;-69
2023/07/03 04:20:26;;;;;;;7.15;1.83;;;14.90;99.90;;;;;;5044896;28;20394;-70
2023/07/03 04:22:52;;;;;;;6.30;1.38;;;14.80;99.90;;;;;;5027517;28;20053;-73
2023/07/03 04:25:18;;;;;;;5.85;1.20;;;14.80;99.90;;;;;;5030005;28;20060;-73
2023/07/03 04:27:43;;;;;;;6.95;1.45;;;14.90;99.90;;;;;;5032736;28;20157;-73
2023/07/03 04:30:10;;;;;;;7.18;1.40;;;14.80;99.90;;;;;;5028160;28;20120;-73
2023/07/03 04:32:36;;;;;;;6.00;1.60;;;14.90;99.90;;;;;;5029390;28;20079;-73
2023/07/03 04:35:02;;;;;;;;;;;14.90;99.90;;;;;;5029139;28;20651;-73
2023/07/03 04:37:29;;;;;;;6.25;1.70;;;14.90;99.90;;;;;;5029036;28;20351;-73
2023/07/03 04:39:56;;;;;;;8.38;1.25;;;14.90;99.90;;;;;;5031285;28;20037;-73
2023/07/03 04:42:22;;;;;;;8.38;1.25;;;14.90;99.90;;;;;;5032077;28;20056;-74
2023/07/03 04:44:48;;;;;;;5.85;1.58;;;14.90;99.90;;;;;;5029794;28;20083;-73
2023/07/03 04:47:18;;;;;;;8.80;1.48;;;15.00;99.90;;;;;;5031587;28;20041;-74
2023/07/03 04:49:45;;;;;;;9.50;1.45;;;15.00;99.90;;;;;;5033963;28;20060;-74
2023/07/03 04:52:11;;;;;;;7.07;1.52;;;15.00;99.90;;;;;;5033338;28;20045;-73
2023/07/03 04:54:38;;;;;;;8.63;1.95;;;15.00;99.90;;;;;;5033806;28;20049;-73
2023/07/03 04:57:03;;;;;;;;;;;15.00;99.90;;;;;;5033736;28;20435;-73
2023/07/03 04:59:29;;;;;;;8.82;1.88;;;15.10;99.90;;;;;;5034486;28;20018;-74
2023/07/03 05:01:55;;;;;;;4.63;0.98;;;15.00;99.90;;;;;;5032647;28;20414;-73
2023/07/03 05:04:20;;;;;;;3.45;1.27;;;15.10;99.90;;;;;;5033129;28;20423;-74
2023/07/03 05:06:47;;;;;;;4.45;1.20;;;15.10;99.90;;;;;;5034254;28;20499;-73
2023/07/03 05:09:13;;;;;;;9.25;2.05;;;15.20;99.90;;;;;;5031802;28;20072;-73
2023/07/03 05:11:38;;;;;;;6.50;1.40;;;15.30;99.90;;;;;;5031368;28;20045;-73
2023/07/03 05:14:04;;;;;;;7.72;1.20;;;15.30;99.90;;;;;;5047363;28;20529;-73
2023/07/03 05:16:30;;;;;;;10.73;1.83;;;15.40;99.90;;;;;;5032455;28;20380;-74
2023/07/03 05:18:56;;;;;;;11.57;1.70;;;15.40;99.90;;;;;;5033886;28;20128;-74
2023/07/03 05:21:21;;;;;;;8.77;2.05;;;15.40;99.90;;;;;;5031847;28;20430;-73
2023/07/03 05:23:47;;;;;;;9.85;1.88;;;15.40;99.90;;;;;;5044010;28;20098;-74
2023/07/03 05:26:13;;;;;;;11.73;1.90;;;15.40;99.90;;;;;;5031808;28;21496;-73
2023/07/03 05:28:38;;;;;;;6.55;1.67;;;15.40;99.90;;;;;;5031740;28;20714;-74
2023/07/03 05:31:04;;;;;;;6.70;1.60;;;15.40;99.90;;;;;;5028750;28;21451;-73
2023/07/03 05:33:30;;;;;;;10.82;1.77;;;15.40;99.90;;;;;;5030980;28;20049;-73
2023/07/03 05:36:00;;;;;;;8.75;1.92;;;15.50;99.90;;;;;;5032689;28;20379;-73
2023/07/03 05:38:25;;;;;;;8.35;1.77;;;15.50;99.90;;;;;;5032204;28;20048;-74
2023/07/03 05:40:51;;;;;;;9.38;1.50;;;15.60;99.90;;;;;;5030818;28;20049;-73
2023/07/03 05:43:17;;;;;;;6.38;1.63;;;15.70;99.90;;;;;;5033353;28;20048;-73
2023/07/03 05:45:43;;;;;;;8.20;1.40;;;15.70;99.90;;;;;;5035625;28;20041;-74
2023/07/03 05:48:09;;;;;;;4.35;0.98;;;15.80;99.90;;;;;;5018105;28;20485;-73
2023/07/03 05:50:35;;;;;;;4.45;1.10;;;15.90;99.90;;;;;;5034172;28;20041;-74
2023/07/03 05:53:00;;;;;;;7.70;1.77;;;16.00;99.90;;;;;;5032105;28;20232;-73
2023/07/03 05:55:26;;;;;;;7.15;1.17;;;16.00;99.90;;;;;;5037226;28;20033;-74
2023/07/03 05:57:51;;;;;;;10.10;1.33;;;16.10;99.90;;;;;;5040046;28;20701;-74
2023/07/03 06:00:17;;;;;;;10.77;1.30;;;16.10;99.90;;;;;;5031074;28;20163;-73
2023/07/03 06:02:44;;;;;;;8.38;1.50;;;16.10;99.90;;;;;;5033506;28;20516;-73
2023/07/03 06:05:12;;;;;;;7.95;1.20;;;16.10;99.90;;;;;;5031483;28;20059;-74
2023/07/03 06:07:38;;;;;;;9.98;1.38;;;16.20;99.90;;;;;;5033238;28;20045;-74
2023/07/03 06:10:07;;;;;;;5.25;1.20;;;16.20;99.90;;;;;;5032610;28;20067;-74
2023/07/03 06:12:33;;;;;;;9.88;1.75;;;16.20;99.90;;;;;;5031428;28;20494;-73
2023/07/03 06:15:00;;;;;;;9.85;1.52;;;16.30;99.90;;;;;;5042101;28;20106;-70
2023/07/03 06:17:28;;;;;;;5.50;1.25;;;16.30;99.90;;;;;;5033086;28;20042;-69
2023/07/03 06:19:54;;;;;;;6.88;1.10;;;16.30;99.90;;;;;;5035596;28;20045;-72
2023/07/03 06:22:20;;;;;;;6.15;0.80;;;16.30;99.90;;;;;;5026376;28;20063;-71
2023/07/03 06:24:46;;;;;;;8.32;0.80;;;16.30;99.90;;;;;;5027569;28;20068;-71
2023/07/03 06:27:12;;;;;;;4.78;1.10;;;16.40;99.90;;;;;;5028617;28;20051;-71
2023/07/03 06:29:39;;;;;;;6.85;1.55;;;16.50;99.90;;;;;;5030545;28;20080;-71
2023/07/03 06:32:06;;;;;;;7.43;1.10;;;16.50;99.90;;;;;;5028548;28;20483;-72
2023/07/03 06:34:31;;;;;;;7.63;1.60;;;16.60;99.90;;;;;;5045761;28;20053;-72
2023/07/03 06:36:57;;;;;;;9.85;2.85;;;16.70;99.90;;;;;;5028719;28;20471;-72
2023/07/03 06:39:23;;;;;;;4.55;1.15;;;16.70;99.90;;;;;;5029186;28;20406;-72
2023/07/03 06:41:49;;;;;;;7.63;1.63;;;16.70;99.90;;;;;;5028318;28;20233;-72
2023/07/03 06:44:16;;;;;;;4.53;1.40;;;16.80;99.90;;;;;;5011281;28;20195;-71
2023/07/03 06:46:43;;;;;;;8.35;1.30;;;16.80;99.90;;;;;;5032484;28;20044;-71
2023/07/03 06:49:09;;;;;;;8.98;1.10;;;16.90;99.90;;;;;;5028869;28;20037;-72
2023/07/03 06:51:36;;;;;;;3.30;1.00;;;16.90;99.90;;;;;;5011230;28;20745;-71
2023/07/03 06:54:03;;;;;;;3.90;1.13;;;16.90;99.90;;;;;;5031830;28;20033;-72
2023/07/03 06:56:29;;;;;;;7.65;1.55;;;16.90;99.90;;;;;;5029991;28;20053;-72
2023/07/03 06:58:55;;;;;;;5.97;0.77;;;16.90;99.90;;;;;;5030609;28;20470;-71
2023/07/03 07:01:23;;;;;;;5.30;1.02;;;17.00;99.90;;;;;;5025053;28;20060;-72
2023/07/03 07:03:49;;;;;;;4.35;0.98;;;17.00;99.90;;;;;;5030328;28;20125;-71
2023/07/03 07:06:18;;;;;;;4.93;1.10;;;17.00;99.90;;;;;;5029278;28;20194;-72
2023/07/03 07:08:44;;;;;;;6.22;0.85;;;17.00;99.90;;;;;;5030303;28;20060;-72
2023/07/03 07:11:12;;;;;;;3.47;0.60;;;17.00;99.90;;;;;;5028169;28;20044;-72
2023/07/03 07:13:43;;;;;;;3.92;1.83;;;16.90;99.90;;;;;;5029538;28;20556;-72
2023/07/03 07:16:21;;;;;;;5.03;0.80;;;16.90;99.90;;;;;;5027574;28;20045;-71
2023/07/03 07:18:50;;;;;;;4.15;0.90;;;16.80;99.90;;;;;;5033995;28;20413;-72
2023/07/03 07:21:16;;;;;;;9.65;0.93;;;16.70;99.90;;;;;;5028395;28;20107;-72
2023/07/03 07:23:42;;;;;;;6.88;0.93;;;16.60;99.90;;;;;;5030444;28;20509;-72
2023/07/03 07:26:07;;;;;;;11.05;1.08;;;16.60;99.90;;;;;;5028188;28;20143;-72
2023/07/03 07:28:33;;;;;;;4.13;0.90;;;16.60;99.90;;;;;;5027493;28;20044;-72
2023/07/03 07:30:59;;;;;;;5.07;1.08;;;16.50;99.90;;;;;;5028278;28;20061;-72
2023/07/03 07:33:25;;;;;;;5.15;0.90;;;16.60;99.90;;;;;;5025322;28;20205;-72
2023/07/03 07:35:51;;;;;;;4.65;0.75;;;16.60;99.90;;;;;;5026222;28;20049;-72
2023/07/03 07:38:19;;;;;;;6.10;1.05;;;16.60;99.90;;;;;;5026840;28;20079;-71
2023/07/03 07:40:44;;;;;;;5.95;0.85;;;16.70;99.90;;;;;;5026458;28;20397;-71
2023/07/03 07:43:12;;;;;;;10.50;1.27;;;16.70;99.90;;;;;;5027241;28;20037;-71
2023/07/03 07:45:38;;;;;;;8.80;1.48;;;16.60;99.90;;;;;;5038177;28;20470;-71
2023/07/03 07:48:04;;;;;;;5.38;0.85;;;16.70;99.90;;;;;;5026368;28;20132;-71
2023/07/03 07:50:34;;;;;;;4.93;1.02;;;16.70;99.90;;;;;;5026111;28;20425;-71
2023/07/03 07:53:00;;;;;;;4.32;0.75;;;16.80;99.90;;;;;;5026421;28;20534;-71
2023/07/03 07:55:25;;;;;;;9.90;1.40;;;16.80;99.90;;;;;;5029276;28;20036;-71
2023/07/03 07:57:51;;;;;;;6.65;0.88;;;16.80;99.90;;;;;;5027662;28;20534;-71
2023/07/03 08:00:17;;;;;;;5.97;0.73;;;16.80;99.90;;;;;;5027311;28;20045;-71
2023/07/03 08:02:43;;;;;;;5.72;0.93;;;16.90;99.90;;;;;;5027783;28;20109;-72
2023/07/03 08:05:08;;;;;;;3.75;0.85;;;17.10;99.90;;;;;;5036594;28;20182;-71
2023/07/03 08:07:34;;;;;;;8.85;1.10;;;17.20;99.90;;;;;;5026334;28;20048;-71
2023/07/03 08:10:00;;;;;;;3.05;0.70;;;17.20;99.90;;;;;;5026616;28;20041;-72
2023/07/03 08:12:26;;;;;;;4.07;0.93;;;17.20;99.90;;;;;;5029050;28;20099;-72
2023/07/03 08:14:52;;;;;;;2.60;0.68;;;17.20;99.90;;;;;;5027944;28;20486;-71
2023/07/03 08:17:18;;;;;;;4.03;0.82;;;17.20;99.90;;;;;;5026441;28;20125;-71
2023/07/03 08:19:44;;;;;;;6.50;1.02;;;17.20;99.90;;;;;;5032441;28;20048;-71
2023/07/03 08:22:09;;;;;;;7.78;1.17;;;17.20;99.90;;;;;;5028169;28;20284;-71
2023/07/03 08:24:35;;;;;;;3.75;0.90;;;17.20;99.90;;;;;;5025203;28;20045;-72
2023/07/03 08:27:01;;;;;;;6.80;1.02;;;17.30;99.90;;;;;;5028273;28;20091;-72
2023/07/03 08:29:26;;;;;;;4.53;0.88;;;17.30;99.90;;;;;;5027822;28;20076;-74
2023/07/03 08:31:53;;;;;;;5.82;1.15;;;17.30;99.90;;;;;;5029820;28;21094;-73
2023/07/03 08:34:19;;;;;;;10.50;1.05;;;17.30;99.90;;;;;;5028533;28;20055;-76
2023/07/03 08:36:44;;;;;;;5.80;0.90;;;17.30;99.90;;;;;;5027064;28;20060;-72
2023/07/03 08:39:10;;;;;;;6.00;1.00;;;17.30;99.90;;;;;;5025520;28;20050;-72
2023/07/03 08:41:46;;;;;;;8.15;1.10;;;17.30;99.90;;;;;;5025162;28;20599;-72
2023/07/03 08:44:12;;;;;;;5.25;1.08;;;17.30;99.90;;;;;;5012084;28;20133;-72
2023/07/03 08:46:38;;;;;;;;;;;17.30;99.90;;;;;;5028802;28;20033;-71
2023/07/03 08:49:06;;;;;;;7.07;1.05;;;17.40;99.90;;;;;;5026381;28;19925;-72
2023/07/03 08:51:36;;;;;;;4.22;1.45;;;17.30;99.90;;;;;;5024466;28;20658;-72
2023/07/03 08:54:16;;;;;;;3.20;1.15;;;17.30;99.90;;;;;;5025183;28;20073;-71
2023/07/03 08:56:42;;;;;;;3.90;0.90;;;17.30;99.90;;;;;;5011222;28;20041;-71
2023/07/03 08:59:08;;;;;;;2.95;1.02;;;17.30;99.90;;;;;;5026628;28;20045;-72
2023/07/03 09:01:56;;;;;;;5.10;0.98;;;17.30;99.90;;;;;;5028481;28;20080;-72
2023/07/03 09:04:36;;;;;;;5.63;0.80;;;17.30;99.90;;;;;;5023635;28;20060;-72
2023/07/03 09:07:10;;;;;;;7.07;1.00;;;17.40;99.90;;;;;;5023783;28;20502;-72
2023/07/03 09:09:52;;;;;;;5.90;0.98;;;17.50;99.90;;;;;;5024925;28;20469;-72
2023/07/03 09:12:30;;;;;;;5.50;1.08;;;17.60;99.90;;;;;;5027835;28;20053;-72
2023/07/03 09:15:09;;;;;;;5.05;0.77;;;17.60;99.90;;;;;;5012209;28;20241;-72
2023/07/03 09:17:37;;;;;;;2.75;1.05;;;17.50;99.90;;;;;;5031030;28;20044;-73
2023/07/03 09:20:06;;;;;;;3.28;0.77;;;17.60;99.90;;;;;;5026664;28;20041;-71
2023/07/03 09:22:41;;;;;;;4.80;0.60;;;17.50;99.90;;;;;;5023932;28;20517;-71
2023/07/03 09:25:17;;;;;;;5.35;0.90;;;17.40;99.90;;;;;;5014563;28;20794;-71
2023/07/03 09:27:44;;;;;;;2.37;0.83;;;17.30;99.90;;;;;;5024270;28;20625;-71
2023/07/03 09:30:12;;;;;;;3.05;0.40;;;17.20;99.90;;;;;;5029016;28;20293;-71
2023/07/03 09:32:37;;;;;;;3.97;0.50;;;17.10;99.90;;;;;;5010968;28;20056;-72
2023/07/03 09:35:11;;;;;;;2.42;0.50;;;17.00;99.90;;;;;;5030951;28;20045;-72
2023/07/03 09:37:38;;;;;;;6.05;1.15;;;16.80;99.90;;;;;;5032787;28;20047;-72
2023/07/03 09:40:09;;;;;;;2.67;0.52;;;16.80;99.90;;;;;;5031550;28;20229;-72
2023/07/03 09:42:36;;;;;;;5.25;0.80;;;16.60;99.90;;;;;;5031751;28;20067;-72
2023/07/03 09:45:11;;;;;;;2.65;0.80;;;16.60;99.90;;;;;;5031213;28;20053;-71
2023/07/03 09:47:37;;;;;;;3.10;0.60;;;16.50;99.90;;;;;;5028808;28;20054;-72
2023/07/03 09:50:05;;;;;;;6.95;0.95;;;16.40;99.90;;;;;;5028444;28;20079;-72
2023/07/03 09:52:31;;;;;;;3.00;0.70;;;16.20;99.90;;;;;;5028229;28;20099;-72
2023/07/03 09:55:01;;;;;;;4.72;0.70;;;16.10;99.90;;;;;;5028003;28;20418;-72
2023/07/03 09:57:28;;;;;;;3.78;0.90;;;16.00;99.90;;;;;;5027724;28;20045;-71
2023/07/03 10:00:06;;;;;;;5.97;0.70;;;16.00;99.90;;;;;;5025802;28;20052;-72
2023/07/03 10:02:32;;;;;;;3.22;1.00;;;16.00;99.90;;;;;;5026984;28;20049;-72
2023/07/03 10:04:57;;;;;;;4.22;0.90;;;16.10;99.90;;;;;;5029305;28;20044;-72
2023/07/03 10:07:23;;;;;;;9.73;1.05;;;16.30;99.90;;;;;;5030395;28;20049;-72
2023/07/03 10:09:50;;;;;;;6.68;1.23;;;16.60;99.90;;;;;;5026116;28;20048;-75
2023/07/03 10:12:21;;;;;;;6.53;1.40;;;16.80;99.90;;;;;;5045233;28;20052;-72
2023/07/03 10:14:55;;;;;;;5.75;1.10;;;17.00;99.90;;;;;;5025372;28;20090;-72
2023/07/03 10:17:31;;;;;;;5.95;1.27;;;17.00;99.90;;;;;;5030812;28;20267;-72
2023/07/03 10:20:09;;;;;;;3.33;1.00;;;17.00;99.90;;;;;;5025672;28;20064;-72
2023/07/03 10:22:37;;;;;;;4.07;1.05;;;16.90;99.90;;;;;;5026936;28;20091;-71
2023/07/03 10:25:06;;;;;;;4.53;1.55;;;16.70;99.90;;;;;;5032694;28;20041;-71
2023/07/03 10:27:35;;;;;;;6.03;1.58;;;16.70;99.90;;;;;;5030654;28;20041;-71
2023/07/03 10:30:05;;;;;;;6.63;1.15;;;16.60;99.90;;;;;;5027796;28;20487;-71
2023/07/03 10:32:33;;;;;;;4.55;0.95;;;16.60;99.90;;;;;;5027534;28;20080;-71
2023/07/03 10:35:11;;;;;;;4.68;1.08;;;16.70;99.90;;;;;;5027782;28;20464;-72
2023/07/03 10:38:25;;;;;;;3.90;1.00;;;16.90;99.90;;;;;;5032099;28;20040;-70
2023/07/03 10:41:12;;;;;;;7.65;1.05;;;17.10;99.90;;;;;;5040134;28;20170;-71
2023/07/03 10:43:49;;;;;;;3.90;0.90;;;17.20;99.90;;;;;;5027407;28;20049;-70
2023/07/03 10:46:24;;;;;;;4.63;0.70;;;17.30;99.90;;;;;;5028183;28;20042;-76
2023/07/03 10:48:53;;;;;;;2.80;0.80;;;17.50;99.90;;;;;;5030353;28;20084;-69
2023/07/03 10:51:39;;;;;;;4.63;0.80;;;17.70;99.90;;;;;;5031917;28;21300;-73
2023/07/03 10:54:13;;;;;;;2.50;0.50;;;17.90;99.90;;;;;;5026916;28;20095;-70
2023/07/03 10:56:44;;;;;;;2.15;0.70;;;18.10;99.90;;;;;;5026104;28;20482;-70
2023/07/03 10:59:10;;;;;;;2.75;0.60;;;18.20;99.90;;;;;;5028804;28;20525;-69
2023/07/03 11:01:42;;;;;;;4.72;1.10;;;18.50;99.90;;;;;;5028038;28;20052;-70
2023/07/03 11:04:19;;;;;;;3.92;0.80;;;18.60;99.90;;;;;;5030187;28;20152;-70
2023/07/03 11:07:14;;;;;;;4.68;0.85;;;18.60;99.90;;;;;;5026743;28;20534;-69
2023/07/03 11:09:43;;;;;;;6.20;0.88;;;18.60;99.90;;;;;;5016502;28;20053;-69
2023/07/03 11:12:32;;;;;;;3.47;0.98;;;18.60;99.90;;;;;;5012375;28;20045;-69
2023/07/03 11:15:20;;;;;;;5.25;0.68;;;18.60;99.90;;;;;;5041007;28;20088;-70
2023/07/03 11:18:27;;;;;;;3.00;0.57;;;18.60;99.90;;;;;;5011109;28;20460;-69
2023/07/03 11:21:19;;;;;;;2.95;0.85;;;18.40;99.90;;;;;;5025578;28;20060;-69
2023/07/03 11:23:53;;;;;;;5.28;0.60;;;18.20;99.90;;;;;;5026238;28;20037;-70
2023/07/03 11:26:36;;;;;;;2.28;0.90;;;18.10;99.90;;;;;;5027617;28;20072;-69
2023/07/03 11:29:05;;;;;;;5.68;0.88;;;18.00;99.90;;;;;;5024548;28;20469;-70
2023/07/03 11:31:31;;;;;;;4.50;1.00;;;17.90;99.90;;;;;;5022077;28;20108;-70
2023/07/03 11:33:57;;;;;;;;;;;18.00;99.90;;;;;;5022155;28;20037;-69
2023/07/03 11:36:40;;;;;;;5.10;1.52;;;18.10;99.90;;;;;;5022125;28;20354;-69
2023/07/03 11:39:20;;;;;;;6.85;0.80;;;18.40;99.90;;;;;;5020774;28;20021;-69
2023/07/03 11:41:53;;;;;;;2.60;0.70;;;18.60;99.90;;;;;;5011802;28;20137;-70
2023/07/03 11:44:27;;;;;;;2.72;1.00;;;18.70;99.90;;;;;;5023750;28;20152;-70
2023/07/03 11:47:03;;;;;;;1.98;0.80;;;18.60;99.90;;;;;;5022840;28;20180;-70
2023/07/03 11:49:32;;;;;;;3.85;0.70;;;18.50;99.90;;;;;;5022613;28;20044;-70
2023/07/03 11:52:00;;;;;;;4.53;0.70;;;18.50;99.90;;;;;;5028152;28;20057;-74
2023/07/03 11:54:29;;;;;;;6.28;1.13;;;18.30;99.90;;;;;;5025733;28;20071;-69
2023/07/03 11:57:27;;;;;;;2.67;0.70;;;18.30;99.90;;;;;;5021815;28;20040;-69
2023/07/03 12:00:00;;;;;;;4.82;1.02;;;18.30;99.90;;;;;;5020260;28;20460;-70
2023/07/03 12:02:26;;;;;;;5.38;1.10;;;18.20;99.90;;;;;;5025562;28;20450;-70
2023/07/03 12:04:52;;;;;;;6.30;1.58;;;18.10;99.90;;;;;;5023803;28;20118;-68
2023/07/03 12:07:18;;;;;;;3.33;0.70;;;18.00;99.90;;;;;;5019186;28;20053;-69
2023/07/03 12:09:45;;;;;;;5.43;0.90;;;18.00;99.90;;;;;;5018867;28;20337;-72
2023/07/03 12:12:26;;;;;;;3.00;0.93;;;17.90;99.90;;;;;;5020168;28;20056;-70
2023/07/03 12:14:57;;;;;;;7.18;0.95;;;17.90;99.90;;;;;;5022322;28;20135;-69
2023/07/03 12:17:27;;;;;;;2.13;0.60;;;17.80;99.90;;;;;;5021063;28;20104;-70
2023/07/03 12:20:21;;;;;;;3.08;0.90;;;17.70;99.90;;;;;;5020998;28;20163;-72
2023/07/03 12:22:49;;;;;;;4.13;0.73;;;17.70;99.90;;;;;;5021322;28;20052;-68
2023/07/03 12:25:21;;;;;;;6.65;1.15;;;17.70;99.90;;;;;;5021426;28;20131;-68
2023/07/03 12:27:48;;;;;;;5.50;1.08;;;17.60;99.90;;;;;;5020659;28;20045;-70
2023/07/03 12:30:25;;;;;;;5.28;0.90;;;17.60;99.90;;;;;;5024986;28;20187;-69
2023/07/03 12:32:52;;;;;;;7.88;0.68;;;17.60;99.90;;;;;;5025258;28;20169;-69
2023/07/03 12:35:23;;;;;;;4.07;0.80;;;17.60;99.90;;;;;;5026954;28;20388;-69
2023/07/03 12:37:52;;;;;;;3.20;0.80;;;17.60;99.90;;;;;;5031239;28;20040;-69
2023/07/03 12:40:20;;;;;;;6.07;0.82;;;17.50;99.90;;;;;;5026481;28;20160;-69
2023/07/03 12:42:47;;;;;;;3.90;1.10;;;17.60;99.90;;;;;;5024994;28;20087;-69
2023/07/03 12:45:23;;;;;;;3.33;1.20;;;17.60;99.90;;;;;;5027802;28;20056;-69
2023/07/03 12:48:07;;;;;;;3.17;1.20;;;17.60;99.90;;;;;;5041613;28;20604;-70
2023/07/03 12:50:44;;;;;;;3.97;0.90;;;17.50;99.90;;;;;;5025380;28;20148;-69
2023/07/03 12:53:10;;;;;;;6.55;0.90;;;17.50;99.90;;;;;;5024642;28;20171;-69
2023/07/03 12:55:37;;;;;;;3.88;0.73;;;17.50;99.90;;;;;;5025505;28;20038;-68
2023/07/03 12:58:05;;;;;;;3.08;0.50;;;17.50;99.90;;;;;;5023691;28;20392;-69